アダック島 の空港の天気 - METARとTAF

アダック空港 ( PADK / ADK ) - アメリカ アラスカ州アダック島
飛行場実況気象(Metar)
観測時間01/19 17:56 AKST (01/20 02:56 UTC)
風向・風速東 10m/s
視程10km以上
天気現象弱い雨
少しの雲 雲底高度 300m
全天を覆う雲 雲底高度 550m
気温2.8℃
湿度92%
気圧997.6hPa
METARPADK 200256Z AUTO 09019KT 10SM -RA FEW010 OVC018 03/02 A2946 RMK AO2 SLP976 P0001 60006 T00280017 56012
過去の天気等 Google飛行場航空写真 Wunderground天気予報

過去48時間のMETAR

飛行場予報(TAF)
データがありません